CDT,Max TemperatureF,Mean TemperatureF,Min TemperatureF,Max Dew PointF,MeanDew PointF,Min DewpointF,Max Humidity, Mean Humidity, Min Humidity, Max Sea Level PressureIn, Mean Sea Level PressureIn, Min Sea Level PressureIn, Max VisibilityMiles, Mean VisibilityMiles, Min VisibilityMiles, Max Wind SpeedMPH, Mean Wind SpeedMPH, Max Gust SpeedMPH,PrecipitationIn, CloudCover, Events, WindDirDegrees
2012-10-1,68,58,46,51,47,43,94,70,38,29.93,29.87,29.81,10,10,10,7,1,,0.00,0,,30
2012-10-2,79,62,48,55,48,44,94,63,33,29.90,29.85,29.80,10,10,7,12,3,18,0.00,2,,10
2012-10-3,70,64,59,59,55,52,82,71,59,30.03,29.96,29.89,10,10,10,7,2,,0.00,8,,188
2012-10-4,76,63,49,59,53,46,93,78,51,30.17,30.08,30.03,10,10,3,16,6,23,0.36,3,Rain-Thunderstorm,203
2012-10-5,50,46,41,46,39,34,95,74,59,30.22,30.17,30.12,10,10,10,13,4,24,0.01,4,Rain,265
2012-10-6,52,42,34,34,32,31,87,66,48,30.22,30.18,30.13,10,10,10,13,4,20,0.00,4,,270
2012-10-7,54,44,34,35,30,23,91,59,31,30.23,30.18,30.14,10,10,10,9,3,17,0.00,5,,272
2012-10-8,63,48,32,36,32,30,90,56,30,30.16,30.09,30.00,10,10,10,17,7,26,0.00,0,,166
2012-10-9,69,58,46,46,42,36,94,63,35,30.01,29.93,29.83,10,10,7,23,9,31,0.17,2,Rain,191
2012-10-10,57,47,37,46,35,29,94,68,35,30.20,30.13,29.98,10,10,10,17,7,24,0.00,2,,259
2012-10-11,68,52,37,44,37,33,85,56,32,30.26,30.14,30.06,10,10,10,17,7,24,0.00,1,,178
2012-10-12,61,52,42,40,33,30,71,50,32,30.43,30.33,30.23,10,10,10,12,7,18,0.00,2,,57
2012-10-13,72,61,51,66,56,36,96,82,54,30.22,29.96,29.73,10,8,2,21,8,39,0.28,7,Rain-Thunderstorm,162
2012-10-14,72,60,49,67,59,46,95,86,75,29.87,29.65,29.48,10,9,2,26,12,38,0.60,7,Rain-Thunderstorm,211
2012-10-15,65,55,45,46,43,40,94,72,41,29.98,29.93,29.87,10,10,10,13,4,18,0.00,0,,273
2012-10-16,77,60,43,56,50,42,94,66,45,29.95,29.71,29.53,10,10,10,23,7,31,0.00,0,,152
2012-10-17,69,62,55,63,54,49,100,74,52,29.56,29.46,29.32,10,9,2,21,10,28,0.71,5,Rain-Thunderstorm,183
2012-10-18,55,51,47,47,41,34,90,71,45,29.50,29.45,29.42,10,10,7,20,11,29,0.01,5,Rain,207
2012-10-19,54,50,47,49,47,46,97,89,73,29.70,29.54,29.41,10,8,1,13,5,17,0.17,8,Rain,242
2012-10-20,59,51,43,47,44,41,99,84,57,29.94,29.84,29.70,10,8,1,9,2,,0.10,4,,243
2012-10-21,74,57,40,58,50,40,97,76,50,29.99,29.95,29.91,10,9,5,12,3,,0.00,0,,130
2012-10-22,71,66,62,66,63,59,93,86,78,29.96,29.90,29.87,10,10,10,15,6,17,0.00,6,Rain-Thunderstorm,153
2012-10-23,77,70,63,68,65,62,94,83,64,29.93,29.88,29.85,10,9,5,12,5,18,0.00,5,Rain,160
2012-10-24,82,74,66,68,64,61,86,72,60,29.93,29.88,29.82,10,10,10,17,8,24,0.00,2,,165
2012-10-25,78,62,45,65,57,39,92,77,61,30.14,29.83,29.70,10,10,4,22,14,33,0.19,5,Rain-Thunderstorm,204
2012-10-26,53,45,37,37,33,31,87,64,45,30.35,30.29,30.15,10,10,10,20,12,26,0.06,2,,312
2012-10-27,50,41,32,33,31,28,90,68,43,30.37,30.30,30.26,10,10,10,12,6,17,0.00,1,,336
2012-10-28,55,44,33,35,32,30,91,66,42,30.30,30.27,30.24,10,10,10,13,4,20,0.00,4,,349
2012-10-29,56,44,32,35,30,23,93,64,29,30.32,30.26,30.11,10,10,10,13,5,20,0.00,0,,333
2012-10-30,54,46,39,31,28,24,70,53,32,30.11,29.94,29.84,10,10,10,22,11,29,0.00,0,,321
2012-10-31,53,42,32,34,27,19,85,60,26,29.91,29.89,29.86,10,10,10,15,7,23,0.00,0,,296